createdAt,value
2022-10-10T00:01:48.607Z,63.10
2022-10-10T00:07:09.062Z,62.91
2022-10-10T00:12:29.699Z,63.35
2022-10-10T00:17:50.270Z,63.49
2022-10-10T00:23:11.137Z,63.72
2022-10-10T00:28:32.072Z,63.31
2022-10-10T00:33:52.766Z,63.28
2022-10-10T00:39:13.381Z,63.47
2022-10-10T00:44:34.085Z,63.58
2022-10-10T00:49:54.873Z,63.31
2022-10-10T00:55:17.005Z,63.68
2022-10-10T01:00:37.693Z,63.24
2022-10-10T01:05:58.136Z,63.65
2022-10-10T01:11:51.674Z,63.53
2022-10-10T01:17:20.496Z,63.22
2022-10-10T01:22:47.477Z,63.47
2022-10-10T01:28:21.475Z,63.18
2022-10-10T01:34:00.723Z,63.00
2022-10-10T01:39:38.678Z,63.40
2022-10-10T01:44:59.601Z,63.38
2022-10-10T01:50:24.174Z,62.80
2022-10-10T01:55:54.837Z,62.98
2022-10-10T02:01:42.641Z,63.20
2022-10-10T02:07:26.113Z,62.75
2022-10-10T02:12:49.090Z,62.21
2022-10-10T02:18:12.018Z,62.71
2022-10-10T02:23:34.758Z,62.30
2022-10-10T02:29:08.092Z,62.40
2022-10-10T02:34:34.007Z,62.71
2022-10-10T02:40:00.127Z,62.52
2022-10-10T02:45:22.199Z,62.86
2022-10-10T02:50:43.176Z,63.30
2022-10-10T02:56:04.324Z,62.98
2022-10-10T03:01:24.984Z,63.26
2022-10-10T03:06:45.796Z,62.69
2022-10-10T03:12:06.792Z,62.69
2022-10-10T03:17:27.408Z,62.88
2022-10-10T03:22:48.107Z,62.63
2022-10-10T03:28:10.409Z,62.91
2022-10-10T03:33:31.519Z,62.53
2022-10-10T03:38:52.193Z,62.55
2022-10-10T03:44:12.801Z,62.48
2022-10-10T03:49:33.435Z,62.37
2022-10-10T03:54:54.109Z,62.61
2022-10-10T04:00:14.943Z,62.58
2022-10-10T04:05:37.904Z,62.97
2022-10-10T04:10:59.131Z,63.01
2022-10-10T04:16:20.067Z,63.14
2022-10-10T04:21:40.799Z,63.27
2022-10-10T04:27:01.336Z,63.10
2022-10-10T04:32:22.128Z,63.11
2022-10-10T04:37:42.734Z,63.27
2022-10-10T04:43:03.811Z,62.84
2022-10-10T04:48:24.818Z,63.41
2022-10-10T04:53:50.104Z,63.46
2022-10-10T04:59:11.544Z,62.95
2022-10-10T05:04:32.570Z,62.80
2022-10-10T05:09:53.754Z,62.86
2022-10-10T05:15:14.732Z,63.11
2022-10-10T05:20:36.507Z,63.33
2022-10-10T05:25:57.575Z,63.24
2022-10-10T05:31:18.283Z,63.10
2022-10-10T05:36:39.002Z,63.17
2022-10-10T05:41:59.641Z,63.46
2022-10-10T05:47:24.198Z,63.46
2022-10-10T05:52:47.802Z,63.25
2022-10-10T05:58:08.484Z,63.27
2022-10-10T06:03:29.150Z,63.74
2022-10-10T06:08:49.898Z,63.61
2022-10-10T06:14:10.826Z,63.79
2022-10-10T06:19:31.406Z,64.00
2022-10-10T06:24:53.163Z,63.84
2022-10-10T06:30:14.586Z,63.51
2022-10-10T06:35:39.852Z,64.17
2022-10-10T06:41:05.074Z,64.40
2022-10-10T06:46:25.873Z,64.18
2022-10-10T06:51:46.517Z,64.43
2022-10-10T06:57:07.288Z,64.31
2022-10-10T07:02:28.661Z,64.22
2022-10-10T07:07:51.908Z,64.27
2022-10-10T07:13:12.883Z,63.81
2022-10-10T07:18:35.546Z,63.55
2022-10-10T07:23:56.903Z,63.55
2022-10-10T07:29:18.236Z,63.98
2022-10-10T07:34:38.984Z,64.09
2022-10-10T07:39:59.499Z,63.70
2022-10-10T07:45:20.276Z,64.14
2022-10-10T07:50:45.209Z,63.83
2022-10-10T07:56:07.967Z,63.76
2022-10-10T08:01:28.996Z,63.55
2022-10-10T08:06:49.541Z,63.67
2022-10-10T08:12:10.293Z,63.74
2022-10-10T08:17:31.082Z,63.64
2022-10-10T08:22:51.787Z,63.27
2022-10-10T08:28:12.713Z,63.11
2022-10-10T08:33:33.523Z,63.32
2022-10-10T08:38:59.389Z,63.13
2022-10-10T08:44:35.370Z,63.46
2022-10-10T08:50:03.659Z,63.17
2022-10-10T08:55:31.266Z,63.03
2022-10-10T09:00:57.133Z,63.32
2022-10-10T09:06:20.822Z,63.42
2022-10-10T09:12:06.765Z,63.36
2022-10-10T09:17:40.341Z,63.41
2022-10-10T09:23:08.702Z,63.02
2022-10-10T09:28:44.231Z,63.13
2022-10-10T09:34:40.118Z,63.20
2022-10-10T09:40:16.484Z,63.07
2022-10-10T09:45:41.888Z,63.17
2022-10-10T09:51:05.892Z,62.99
2022-10-10T09:56:42.140Z,62.99
2022-10-10T10:02:08.788Z,62.60
2022-10-10T10:07:36.343Z,62.46
2022-10-10T10:12:57.353Z,62.77
2022-10-10T10:18:19.822Z,62.70
2022-10-10T10:24:02.835Z,62.61
2022-10-10T10:29:34.239Z,63.09
2022-10-10T10:35:32.976Z,62.59
2022-10-10T10:41:17.795Z,62.58
2022-10-10T10:47:04.845Z,62.85
2022-10-10T10:52:52.850Z,62.74
2022-10-10T10:59:22.696Z,62.59
2022-10-10T11:05:18.787Z,62.43
2022-10-10T11:10:36.418Z,62.43
2022-10-10T11:16:36.273Z,62.32
2022-10-10T11:22:11.024Z,62.29
2022-10-10T11:27:42.845Z,62.50
2022-10-10T11:33:32.986Z,62.84
2022-10-10T11:38:53.793Z,62.84
2022-10-10T11:44:18.175Z,62.59
2022-10-10T11:49:57.952Z,62.23
2022-10-10T11:55:28.515Z,62.66
2022-10-10T12:00:55.145Z,62.23
2022-10-10T12:06:41.295Z,62.07
2022-10-10T12:12:06.838Z,62.06
2022-10-10T12:17:32.481Z,62.43
2022-10-10T12:23:15.079Z,62.55
2022-10-10T12:28:57.040Z,62.06
2022-10-10T12:34:58.323Z,62.07
2022-10-10T12:40:21.487Z,62.07
2022-10-10T12:46:06.884Z,62.29
2022-10-10T12:51:30.711Z,61.97
2022-10-10T12:57:00.587Z,61.89
2022-10-10T13:02:28.332Z,61.79
2022-10-10T13:07:49.873Z,61.79
2022-10-10T13:13:13.713Z,61.78
2022-10-10T13:18:42.030Z,61.78
2022-10-10T13:24:06.070Z,61.72
2022-10-10T13:29:31.342Z,61.51
2022-10-10T13:34:55.581Z,61.72
2022-10-10T13:40:17.653Z,61.48
2022-10-10T13:45:46.094Z,61.19
2022-10-10T13:51:12.602Z,61.16
2022-10-10T13:56:41.563Z,61.23
2022-10-10T14:02:04.641Z,61.22
2022-10-10T14:07:28.263Z,61.47
2022-10-10T14:12:53.068Z,61.06
2022-10-10T14:18:25.412Z,61.48
2022-10-10T14:23:46.117Z,61.10
2022-10-10T14:29:13.500Z,61.42
2022-10-10T14:34:34.314Z,61.30
2022-10-10T14:39:56.059Z,61.07
2022-10-10T14:45:17.589Z,61.22
2022-10-10T14:50:44.004Z,61.45
2022-10-10T14:56:05.232Z,61.65
2022-10-10T15:01:25.929Z,62.08
2022-10-10T15:07:11.698Z,62.25
2022-10-10T15:12:27.527Z,62.54
2022-10-10T15:17:48.493Z,62.64
2022-10-10T15:23:10.129Z,62.79
2022-10-10T15:28:31.566Z,62.83
2022-10-10T15:33:55.403Z,63.14
2022-10-10T15:39:16.274Z,63.29
2022-10-10T15:44:38.189Z,63.47
2022-10-10T15:49:58.871Z,63.42
2022-10-10T15:55:19.548Z,63.37
2022-10-10T16:00:42.286Z,63.41
2022-10-10T16:06:04.241Z,63.75
2022-10-10T16:11:26.065Z,63.78
2022-10-10T16:16:46.867Z,63.58
2022-10-10T16:22:07.510Z,63.52
2022-10-10T16:27:28.558Z,63.67
2022-10-10T16:32:49.564Z,63.81
2022-10-10T16:38:10.369Z,63.77
2022-10-10T16:43:31.509Z,63.93
2022-10-10T16:48:53.085Z,64.09
2022-10-10T16:54:14.433Z,64.14
2022-10-10T16:59:35.346Z,64.17
2022-10-10T17:04:57.692Z,63.89
2022-10-10T17:10:18.569Z,64.30
2022-10-10T17:15:41.286Z,64.10
2022-10-10T17:21:04.189Z,64.75
2022-10-10T17:26:26.235Z,64.76
2022-10-10T17:31:46.735Z,64.46
2022-10-10T17:37:07.404Z,64.49
2022-10-10T17:42:28.177Z,64.99
2022-10-10T17:47:48.705Z,65.40
2022-10-10T17:53:09.439Z,65.94
2022-10-10T17:58:30.404Z,64.86
2022-10-10T18:03:51.504Z,64.89
2022-10-10T18:09:12.833Z,65.11
2022-10-10T18:14:33.790Z,65.05
2022-10-10T18:19:54.610Z,65.56
2022-10-10T18:25:15.305Z,65.51
2022-10-10T18:30:40.160Z,65.92
2022-10-10T18:36:01.200Z,66.05
2022-10-10T18:41:23.708Z,66.14
2022-10-10T18:46:46.173Z,66.39
2022-10-10T18:52:10.074Z,66.46
2022-10-10T18:57:30.739Z,66.13
2022-10-10T19:02:52.524Z,66.37
2022-10-10T19:08:14.085Z,66.26
2022-10-10T19:13:34.830Z,66.09
2022-10-10T19:19:00.693Z,66.10
2022-10-10T19:24:22.427Z,66.22
2022-10-10T19:29:43.182Z,66.47
2022-10-10T19:35:04.399Z,66.64
2022-10-10T19:40:24.988Z,66.52
2022-10-10T19:45:48.503Z,66.27
2022-10-10T19:51:13.025Z,65.94
2022-10-10T19:56:34.066Z,66.00
2022-10-10T20:01:55.118Z,66.43
2022-10-10T20:07:15.757Z,66.58
2022-10-10T20:12:36.494Z,66.47
2022-10-10T20:17:57.108Z,66.85
2022-10-10T20:23:20.451Z,66.88
2022-10-10T20:28:43.176Z,66.75
2022-10-10T20:34:05.361Z,66.94
2022-10-10T20:39:26.113Z,66.86
2022-10-10T20:44:46.667Z,67.04
2022-10-10T20:50:07.631Z,67.34
2022-10-10T20:55:28.611Z,67.19
2022-10-10T21:00:49.158Z,67.29
2022-10-10T21:06:15.405Z,67.34
2022-10-10T21:11:36.349Z,67.47
2022-10-10T21:16:57.536Z,67.30
2022-10-10T21:22:17.985Z,67.08
2022-10-10T21:27:38.633Z,67.34
2022-10-10T21:32:59.078Z,67.37
2022-10-10T21:38:20.448Z,67.21
2022-10-10T21:43:41.341Z,67.33
2022-10-10T21:49:08.775Z,67.30
2022-10-10T21:54:29.771Z,67.08
2022-10-10T21:59:50.440Z,67.39
2022-10-10T22:05:11.586Z,67.26
2022-10-10T22:10:34.301Z,67.40
2022-10-10T22:15:55.089Z,67.18
2022-10-10T22:21:16.909Z,66.99
2022-10-10T22:26:38.526Z,66.94
2022-10-10T22:31:59.475Z,67.12
2022-10-10T22:37:20.135Z,66.86
2022-10-10T22:42:40.702Z,67.20
2022-10-10T22:48:02.545Z,67.02
2022-10-10T22:53:24.129Z,67.03
2022-10-10T22:58:45.168Z,67.05
2022-10-10T23:04:10.314Z,67.05
2022-10-10T23:09:30.947Z,67.38
2022-10-10T23:14:51.651Z,67.48
2022-10-10T23:20:12.458Z,67.15
2022-10-10T23:25:33.432Z,67.96
2022-10-10T23:30:54.001Z,68.01
2022-10-10T23:36:15.694Z,68.63
2022-10-10T23:41:36.249Z,68.06
2022-10-10T23:46:56.923Z,67.83
2022-10-10T23:52:17.440Z,67.96
2022-10-10T23:57:38.201Z,67.70
